Time,TemperatureF,DewpointF,PressureIn,WindDirection,WindDirectionDegrees,WindSpeedMPH,WindSpeedGustMPH,Humidity,HourlyPrecipIn,Conditions,Clouds,dailyrainin,SoftwareType,DateUTC
2013-12-20 00:00:00,55.1,50.0,29.63,SSE,158,2.0,6.0,83,0.00,,,0.00,VWS V14.00,2013-12-20 06:00:00,
2013-12-20 00:05:00,55.1,50.0,29.63,SSE,158,3.0,6.0,83,0.00,,,0.00,VWS V14.00,2013-12-20 06:05:00,
2013-12-20 00:10:00,55.1,50.0,29.63,SSE,158,2.0,5.0,83,0.00,,,0.00,VWS V14.00,2013-12-20 06:10:00,
2013-12-20 00:15:00,55.1,50.0,29.63,SSE,158,2.0,6.0,83,0.00,,,0.00,VWS V14.00,2013-12-20 06:15:00,
2013-12-20 00:20:00,55.0,49.9,29.62,SSE,158,2.0,6.0,83,0.00,,,0.00,VWS V14.00,2013-12-20 06:20:00,
2013-12-20 00:25:00,55.0,49.9,29.63,SSE,158,2.0,6.0,83,0.00,,,0.00,VWS V14.00,2013-12-20 06:25:00,
2013-12-20 00:30:00,55.1,50.0,29.63,SSE,158,3.0,7.0,83,0.00,,,0.00,VWS V14.00,2013-12-20 06:30:00,
2013-12-20 00:35:00,55.1,50.0,29.62,South,180,2.0,4.0,83,0.00,,,0.00,VWS V14.00,2013-12-20 06:35:00,
2013-12-20 00:40:00,55.2,50.1,29.62,SSE,158,2.0,7.0,83,0.00,,,0.00,VWS V14.00,2013-12-20 06:40:00,
2013-12-20 00:45:00,55.2,50.1,29.62,South,180,3.0,7.0,83,0.00,,,0.00,VWS V14.00,2013-12-20 06:45:00,
2013-12-20 00:50:00,55.3,50.2,29.62,South,180,2.0,7.0,83,0.00,,,0.00,VWS V14.00,2013-12-20 06:50:00,
2013-12-20 00:55:00,55.3,50.2,29.62,South,180,3.0,6.0,83,0.00,,,0.00,VWS V14.00,2013-12-20 06:55:00,
2013-12-20 01:00:00,55.3,50.6,29.62,SSE,158,3.0,7.0,84,0.00,,,0.00,VWS V14.00,2013-12-20 07:00:00,
2013-12-20 01:05:00,55.4,50.7,29.62,South,180,3.0,6.0,84,0.00,,,0.00,VWS V14.00,2013-12-20 07:05:00,
2013-12-20 01:10:00,55.4,50.7,29.62,SSE,158,3.0,6.0,84,0.00,,,0.00,VWS V14.00,2013-12-20 07:10:00,
2013-12-20 01:15:00,55.4,50.7,29.61,South,180,2.0,7.0,84,0.00,,,0.00,VWS V14.00,2013-12-20 07:15:00,
2013-12-20 01:20:00,55.4,50.7,29.61,SSE,158,4.0,7.0,84,0.00,,,0.00,VWS V14.00,2013-12-20 07:20:00,
2013-12-20 01:25:00,55.4,50.7,29.61,SSE,158,4.0,9.0,84,0.00,,,0.00,VWS V14.00,2013-12-20 07:25:00,
2013-12-20 01:30:00,55.5,50.8,29.61,SSE,158,5.0,9.0,84,0.00,,,0.00,VWS V14.00,2013-12-20 07:30:00,
2013-12-20 01:35:00,55.7,51.0,29.61,SSE,158,4.0,8.0,84,0.00,,,0.00,VWS V14.00,2013-12-20 07:35:00,
2013-12-20 01:40:00,55.8,51.0,29.61,South,180,4.0,7.0,84,0.00,,,0.00,VWS V14.00,2013-12-20 07:40:00,
2013-12-20 01:45:00,55.8,50.7,29.62,South,180,1.0,5.0,83,0.00,,,0.00,VWS V14.00,2013-12-20 07:45:00,
2013-12-20 01:50:00,55.5,50.1,29.63,WNW,292,6.0,14.0,82,0.00,,,0.00,VWS V14.00,2013-12-20 07:50:00,
2013-12-20 01:55:00,55.2,50.1,29.62,WNW,292,3.0,13.0,83,0.00,,,0.00,VWS V14.00,2013-12-20 07:55:00,
2013-12-20 02:00:00,55.0,50.3,29.63,West,270,0.0,5.0,84,0.00,,,0.00,VWS V14.00,2013-12-20 08:00:00,
2013-12-20 02:05:00,54.7,50.0,29.63,WNW,292,6.0,9.0,84,0.00,,,0.00,VWS V14.00,2013-12-20 08:05:00,
2013-12-20 02:10:00,54.5,50.1,29.64,West,270,2.0,5.0,85,0.00,,,0.00,VWS V14.00,2013-12-20 08:10:00,
2013-12-20 02:15:00,54.4,50.0,29.64,SW,225,1.0,4.0,85,0.00,,,0.00,VWS V14.00,2013-12-20 08:15:00,
2013-12-20 02:20:00,54.2,49.8,29.64,West,270,2.0,5.0,85,0.00,,,0.00,VWS V14.00,2013-12-20 08:20:00,
2013-12-20 02:25:00,54.1,50.0,29.64,West,270,0.0,1.0,86,0.00,,,0.00,VWS V14.00,2013-12-20 08:25:00,
2013-12-20 02:30:00,54.0,49.9,29.64,West,270,0.0,0.0,86,0.00,,,0.00,VWS V14.00,2013-12-20 08:30:00,
2013-12-20 02:35:00,54.0,50.2,29.64,West,270,0.0,0.0,87,0.00,,,0.00,VWS V14.00,2013-12-20 08:35:00,
2013-12-20 02:40:00,54.0,50.2,29.64,West,270,0.0,0.0,87,0.00,,,0.00,VWS V14.00,2013-12-20 08:40:00,
2013-12-20 02:45:00,53.8,49.7,29.65,WNW,292,4.0,13.0,86,0.00,,,0.00,VWS V14.00,2013-12-20 08:45:00,
2013-12-20 02:50:00,52.9,46.9,29.66,NW,315,7.0,15.0,80,0.00,,,0.00,VWS V14.00,2013-12-20 08:50:00,
2013-12-20 02:55:00,51.7,45.4,29.66,NW,315,7.0,12.0,79,0.00,,,0.00,VWS V14.00,2013-12-20 08:55:00,
2013-12-20 03:00:00,50.5,44.2,29.66,WNW,292,8.0,15.0,79,0.00,,,0.00,VWS V14.00,2013-12-20 09:00:00,
2013-12-20 03:05:00,49.4,43.5,29.66,NW,315,6.0,12.0,80,0.00,,,0.00,VWS V14.00,2013-12-20 09:05:00,
2013-12-20 03:10:00,48.3,42.4,29.66,NW,315,8.0,16.0,80,0.00,,,0.00,VWS V14.00,2013-12-20 09:10:00,
2013-12-20 03:15:00,47.3,41.8,29.66,NW,315,7.0,14.0,81,0.00,,,0.00,VWS V14.00,2013-12-20 09:15:00,
2013-12-20 03:20:00,46.4,40.9,29.66,NW,315,7.0,12.0,81,0.00,,,0.00,VWS V14.00,2013-12-20 09:20:00,
2013-12-20 03:25:00,45.5,40.3,29.67,NW,315,8.0,13.0,82,0.00,,,0.00,VWS V14.00,2013-12-20 09:25:00,
2013-12-20 03:30:00,44.7,39.5,29.67,NW,315,9.0,15.0,82,0.00,,,0.00,VWS V14.00,2013-12-20 09:30:00,
2013-12-20 03:35:00,44.1,39.3,29.67,NW,315,5.0,8.0,83,0.00,,,0.00,VWS V14.00,2013-12-20 09:35:00,
2013-12-20 03:40:00,43.7,39.2,29.67,NW,315,6.0,12.0,84,0.00,,,0.00,VWS V14.00,2013-12-20 09:40:00,
2013-12-20 03:45:00,43.2,38.7,29.67,NW,315,7.0,15.0,84,0.00,,,0.00,VWS V14.00,2013-12-20 09:45:00,
2013-12-20 03:50:00,42.8,38.3,29.68,NW,315,9.0,15.0,84,0.00,,,0.00,VWS V14.00,2013-12-20 09:50:00,
2013-12-20 03:55:00,42.3,38.1,29.68,NW,315,7.0,13.0,85,0.00,,,0.00,VWS V14.00,2013-12-20 09:55:00,
2013-12-20 04:00:00,41.9,37.7,29.68,NW,315,11.0,20.0,85,0.00,,,0.00,VWS V14.00,2013-12-20 10:00:00,
2013-12-20 04:05:00,41.4,37.2,29.69,NW,315,11.0,20.0,85,0.00,,,0.00,VWS V14.00,2013-12-20 10:05:00,
2013-12-20 04:10:00,40.9,36.8,29.69,WNW,292,9.0,21.0,85,0.00,,,0.00,VWS V14.00,2013-12-20 10:10:00,
2013-12-20 04:15:00,40.6,36.8,29.69,NW,315,8.0,16.0,86,0.00,,,0.00,VWS V14.00,2013-12-20 10:15:00,
2013-12-20 04:20:00,40.3,36.8,29.70,NW,315,8.0,16.0,87,0.00,,,0.00,VWS V14.00,2013-12-20 10:20:00,
2013-12-20 04:25:00,40.0,36.5,29.69,NW,315,9.0,17.0,87,0.00,,,0.00,VWS V14.00,2013-12-20 10:25:00,
2013-12-20 04:30:00,39.7,36.2,29.69,NW,315,9.0,16.0,87,0.00,,,0.00,VWS V14.00,2013-12-20 10:30:00,
2013-12-20 04:35:00,39.5,36.2,29.69,NW,315,8.0,16.0,88,0.00,,,0.00,VWS V14.00,2013-12-20 10:35:00,
2013-12-20 04:40:00,39.4,36.2,29.69,NW,315,7.0,12.0,88,0.00,,,0.00,VWS V14.00,2013-12-20 10:40:00,
2013-12-20 04:45:00,39.2,36.0,29.70,NW,315,8.0,16.0,88,0.00,,,0.00,VWS V14.00,2013-12-20 10:45:00,
2013-12-20 04:50:00,38.9,35.7,29.70,NW,315,10.0,18.0,88,0.00,,,0.00,VWS V14.00,2013-12-20 10:50:00,
2013-12-20 04:55:00,38.7,35.5,29.69,NW,315,9.0,18.0,88,0.00,,,0.00,VWS V14.00,2013-12-20 10:55:00,
2013-12-20 05:00:00,38.4,35.2,29.70,NW,315,10.0,18.0,88,0.00,,,0.00,VWS V14.00,2013-12-20 11:00:00,
2013-12-20 05:05:00,38.1,35.2,29.70,NW,315,8.0,14.0,89,0.00,,,0.00,VWS V14.00,2013-12-20 11:05:00,
2013-12-20 05:10:00,37.9,35.0,29.71,NW,315,8.0,16.0,89,0.00,,,0.00,VWS V14.00,2013-12-20 11:10:00,
2013-12-20 05:15:00,37.7,34.8,29.71,WNW,292,10.0,17.0,89,0.00,,,0.00,VWS V14.00,2013-12-20 11:15:00,
2013-12-20 05:20:00,37.5,34.6,29.71,NW,315,6.0,12.0,89,0.00,,,0.00,VWS V14.00,2013-12-20 11:20:00,
2013-12-20 05:25:00,37.3,34.6,29.71,NW,315,6.0,14.0,90,0.00,,,0.00,VWS V14.00,2013-12-20 11:25:00,
2013-12-20 05:30:00,37.3,34.6,29.72,NW,315,5.0,13.0,90,0.00,,,0.00,VWS V14.00,2013-12-20 11:30:00,
2013-12-20 05:35:00,37.1,34.4,29.72,NW,315,5.0,10.0,90,0.00,,,0.00,VWS V14.00,2013-12-20 11:35:00,
2013-12-20 05:40:00,37.1,34.4,29.72,WNW,292,5.0,14.0,90,0.00,,,0.00,VWS V14.00,2013-12-20 11:40:00,
2013-12-20 05:45:00,36.9,34.2,29.73,NW,315,8.0,15.0,90,0.00,,,0.00,VWS V14.00,2013-12-20 11:45:00,
2013-12-20 05:50:00,36.8,34.2,29.73,NW,315,7.0,14.0,90,0.00,,,0.00,VWS V14.00,2013-12-20 11:50:00,
2013-12-20 05:55:00,36.6,34.0,29.73,WNW,292,8.0,14.0,90,0.00,,,0.00,VWS V14.00,2013-12-20 11:55:00,
2013-12-20 06:00:00,36.4,33.8,29.74,WNW,292,8.0,15.0,90,0.00,,,0.00,VWS V14.00,2013-12-20 12:00:00,
2013-12-20 06:05:00,36.3,33.7,29.73,NW,315,9.0,15.0,90,0.00,,,0.00,VWS V14.00,2013-12-20 12:05:00,
2013-12-20 06:10:00,36.2,33.6,29.74,NW,315,8.0,17.0,90,0.00,,,0.00,VWS V14.00,2013-12-20 12:10:00,
2013-12-20 06:15:00,36.0,33.6,29.75,WNW,292,8.0,16.0,91,0.00,,,0.00,VWS V14.00,2013-12-20 12:15:00,
2013-12-20 06:20:00,35.9,33.5,29.74,NW,315,6.0,13.0,91,0.00,,,0.00,VWS V14.00,2013-12-20 12:20:00,
2013-12-20 06:25:00,35.8,33.4,29.74,NW,315,8.0,14.0,91,0.00,,,0.00,VWS V14.00,2013-12-20 12:25:00,
2013-12-20 06:30:00,35.7,33.3,29.74,NW,315,8.0,17.0,91,0.00,,,0.00,VWS V14.00,2013-12-20 12:30:00,
2013-12-20 06:35:00,35.6,33.2,29.75,NW,315,8.0,17.0,91,0.00,,,0.00,VWS V14.00,2013-12-20 12:35:00,
2013-12-20 06:40:00,35.4,33.0,29.75,NW,315,7.0,14.0,91,0.00,,,0.00,VWS V14.00,2013-12-20 12:40:00,
2013-12-20 06:45:00,35.3,32.9,29.76,WNW,292,8.0,18.0,91,0.00,,,0.00,VWS V14.00,2013-12-20 12:45:00,
2013-12-20 06:50:00,35.1,32.5,29.76,NW,315,11.0,19.0,90,0.00,,,0.00,VWS V14.00,2013-12-20 12:50:00,
2013-12-20 06:55:00,34.7,32.1,29.77,WNW,292,9.0,19.0,90,0.00,,,0.00,VWS V14.00,2013-12-20 12:55:00,
2013-12-20 07:00:00,34.3,31.7,29.77,NW,315,9.0,18.0,90,0.00,,,0.00,VWS V14.00,2013-12-20 13:00:00,
2013-12-20 07:05:00,34.0,31.4,29.77,NW,315,10.0,20.0,90,0.00,,,0.00,VWS V14.00,2013-12-20 13:05:00,
2013-12-20 07:10:00,33.8,31.2,29.78,NW,315,7.0,14.0,90,0.00,,,0.00,VWS V14.00,2013-12-20 13:10:00,
2013-12-20 07:15:00,33.6,31.3,29.77,NW,315,8.0,18.0,91,0.00,,,0.00,VWS V14.00,2013-12-20 13:15:00,
2013-12-20 07:20:00,33.4,31.1,29.77,WNW,292,8.0,15.0,91,0.00,,,0.00,VWS V14.00,2013-12-20 13:20:00,
2013-12-20 07:25:00,33.3,31.0,29.77,NW,315,8.0,14.0,91,0.00,,,0.00,VWS V14.00,2013-12-20 13:25:00,
2013-12-20 07:30:00,33.2,30.9,29.77,NW,315,7.0,13.0,91,0.00,,,0.00,VWS V14.00,2013-12-20 13:30:00,
2013-12-20 07:35:00,33.1,30.8,29.77,WNW,292,6.0,10.0,91,0.00,,,0.00,VWS V14.00,2013-12-20 13:35:00,
2013-12-20 07:40:00,33.0,30.7,29.77,WNW,292,7.0,14.0,91,0.00,,,0.00,VWS V14.00,2013-12-20 13:40:00,
2013-12-20 07:45:00,32.9,30.6,29.77,WNW,292,7.0,12.0,91,0.00,,,0.00,VWS V14.00,2013-12-20 13:45:00,
2013-12-20 07:50:00,32.8,30.5,29.78,WNW,292,6.0,10.0,91,0.00,,,0.00,VWS V14.00,2013-12-20 13:50:00,
2013-12-20 07:55:00,32.7,30.4,29.78,WNW,292,5.0,13.0,91,0.00,,,0.00,VWS V14.00,2013-12-20 13:55:00,
2013-12-20 08:00:00,32.6,30.3,29.78,NW,315,7.0,11.0,91,0.00,,,0.00,VWS V14.00,2013-12-20 14:00:00,
2013-12-20 08:05:00,32.5,30.2,29.79,NW,315,8.0,16.0,91,0.00,,,0.00,VWS V14.00,2013-12-20 14:05:00,
2013-12-20 08:10:00,32.4,30.1,29.79,NW,315,8.0,13.0,91,0.00,,,0.00,VWS V14.00,2013-12-20 14:10:00,
2013-12-20 08:15:00,32.3,30.0,29.79,NW,315,8.0,14.0,91,0.00,,,0.00,VWS V14.00,2013-12-20 14:15:00,
2013-12-20 08:20:00,32.1,29.8,29.81,WNW,292,8.0,16.0,91,0.00,,,0.00,VWS V14.00,2013-12-20 14:20:00,
2013-12-20 08:25:00,32.0,29.7,29.80,WNW,292,7.0,12.0,91,0.00,,,0.00,VWS V14.00,2013-12-20 14:25:00,
2013-12-20 08:30:00,31.9,29.6,29.80,WNW,292,8.0,15.0,91,0.00,,,0.00,VWS V14.00,2013-12-20 14:30:00,
2013-12-20 08:35:00,31.7,29.4,29.81,WNW,292,7.0,12.0,91,0.00,,,0.00,VWS V14.00,2013-12-20 14:35:00,
2013-12-20 08:40:00,31.6,29.3,29.82,NW,315,7.0,12.0,91,0.00,,,0.00,VWS V14.00,2013-12-20 14:40:00,
2013-12-20 08:45:00,31.5,29.2,29.82,NW,315,6.0,13.0,91,0.00,,,0.00,VWS V14.00,2013-12-20 14:45:00,
2013-12-20 08:50:00,31.5,29.2,29.82,WNW,292,5.0,11.0,91,0.00,,,0.00,VWS V14.00,2013-12-20 14:50:00,
2013-12-20 08:55:00,31.5,29.2,29.83,WNW,292,6.0,14.0,91,0.00,,,0.00,VWS V14.00,2013-12-20 14:55:00,
2013-12-20 09:00:00,31.4,29.1,29.83,WNW,292,8.0,14.0,91,0.00,,,0.00,VWS V14.00,2013-12-20 15:00:00,
2013-12-20 09:05:00,31.3,29.0,29.83,WNW,292,8.0,15.0,91,0.00,,,0.00,VWS V14.00,2013-12-20 15:05:00,
2013-12-20 09:10:00,31.2,28.9,29.84,WNW,292,7.0,12.0,91,0.00,,,0.00,VWS V14.00,2013-12-20 15:10:00,
2013-12-20 09:15:00,31.1,28.8,29.84,WNW,292,6.0,13.0,91,0.00,,,0.00,VWS V14.00,2013-12-20 15:15:00,
2013-12-20 09:20:00,31.0,28.7,29.85,WNW,292,9.0,17.0,91,0.00,,,0.00,VWS V14.00,2013-12-20 15:20:00,
2013-12-20 09:25:00,30.9,28.6,29.85,WNW,292,6.0,12.0,91,0.00,,,0.00,VWS V14.00,2013-12-20 15:25:00,
2013-12-20 09:30:00,30.8,28.5,29.85,WNW,292,8.0,15.0,91,0.00,,,0.00,VWS V14.00,2013-12-20 15:30:00,
2013-12-20 09:35:00,30.8,28.5,29.84,WNW,292,8.0,15.0,91,0.00,,,0.00,VWS V14.00,2013-12-20 15:35:00,
2013-12-20 09:40:00,30.7,28.4,29.85,WNW,292,7.0,16.0,91,0.00,,,0.00,VWS V14.00,2013-12-20 15:40:00,
2013-12-20 09:45:00,30.6,28.3,29.86,NW,315,8.0,18.0,91,0.00,,,0.00,VWS V14.00,2013-12-20 15:45:00,
2013-12-20 09:50:00,30.5,28.2,29.86,NW,315,8.0,13.0,91,0.00,,,0.00,VWS V14.00,2013-12-20 15:50:00,
2013-12-20 09:55:00,30.5,28.2,29.86,WNW,292,6.0,12.0,91,0.00,,,0.00,VWS V14.00,2013-12-20 15:55:00,
2013-12-20 10:00:00,30.6,28.3,29.87,NW,315,5.0,11.0,91,0.00,,,0.00,VWS V14.00,2013-12-20 16:00:00,
2013-12-20 10:05:00,30.6,28.3,29.86,WNW,292,5.0,13.0,91,0.00,,,0.00,VWS V14.00,2013-12-20 16:05:00,
2013-12-20 10:10:00,30.6,28.3,29.87,WNW,292,6.0,11.0,91,0.00,,,0.00,VWS V14.00,2013-12-20 16:10:00,
2013-12-20 10:15:00,30.6,28.3,29.88,WNW,292,6.0,10.0,91,0.00,,,0.00,VWS V14.00,2013-12-20 16:15:00,
2013-12-20 10:20:00,30.5,27.9,29.87,WNW,292,8.0,16.0,90,0.00,,,0.00,VWS V14.00,2013-12-20 16:20:00,
2013-12-20 10:25:00,30.5,27.9,29.87,West,270,6.0,11.0,90,0.00,,,0.00,VWS V14.00,2013-12-20 16:25:00,
2013-12-20 10:30:00,30.4,27.8,29.86,WNW,292,6.0,11.0,90,0.00,,,0.00,VWS V14.00,2013-12-20 16:30:00,
2013-12-20 10:35:00,30.4,27.8,29.87,WNW,292,6.0,14.0,90,0.00,,,0.00,VWS V14.00,2013-12-20 16:35:00,
2013-12-20 10:40:00,30.3,27.7,29.87,WNW,292,7.0,12.0,90,0.00,,,0.00,VWS V14.00,2013-12-20 16:40:00,
2013-12-20 10:45:00,30.2,27.6,29.87,WNW,292,6.0,11.0,90,0.00,,,0.00,VWS V14.00,2013-12-20 16:45:00,
2013-12-20 10:50:00,30.2,27.6,29.88,West,270,5.0,10.0,90,0.00,,,0.00,VWS V14.00,2013-12-20 16:50:00,
2013-12-20 10:55:00,30.2,27.6,29.88,West,270,8.0,14.0,90,0.00,,,0.00,VWS V14.00,2013-12-20 16:55:00,
2013-12-20 11:00:00,30.1,27.5,29.88,WNW,292,8.0,14.0,90,0.00,,,0.00,VWS V14.00,2013-12-20 17:00:00,
2013-12-20 11:05:00,30.0,27.2,29.88,WNW,292,5.0,9.0,89,0.00,,,0.00,VWS V14.00,2013-12-20 17:05:00,
2013-12-20 11:10:00,29.9,27.1,29.87,WNW,292,6.0,13.0,89,0.00,,,0.00,VWS V14.00,2013-12-20 17:10:00,
2013-12-20 11:15:00,29.9,27.1,29.87,WNW,292,9.0,15.0,89,0.00,,,0.00,VWS V14.00,2013-12-20 17:15:00,
2013-12-20 11:20:00,29.8,27.0,29.87,WNW,292,9.0,16.0,89,0.00,,,0.00,VWS V14.00,2013-12-20 17:20:00,
2013-12-20 11:25:00,29.7,26.9,29.87,NW,315,8.0,18.0,89,0.00,,,0.00,VWS V14.00,2013-12-20 17:25:00,
2013-12-20 11:30:00,29.7,26.9,29.86,NW,315,7.0,13.0,89,0.00,,,0.00,VWS V14.00,2013-12-20 17:30:00,
2013-12-20 11:35:00,29.6,26.8,29.86,WNW,292,6.0,12.0,89,0.00,,,0.00,VWS V14.00,2013-12-20 17:35:00,
2013-12-20 11:40:00,29.7,26.9,29.86,WNW,292,5.0,10.0,89,0.00,,,0.00,VWS V14.00,2013-12-20 17:40:00,
2013-12-20 11:45:00,29.6,26.5,29.86,WNW,292,8.0,16.0,88,0.00,,,0.00,VWS V14.00,2013-12-20 17:45:00,
2013-12-20 11:50:00,29.4,26.0,29.86,WNW,292,8.0,14.0,87,0.00,,,0.00,VWS V14.00,2013-12-20 17:50:00,
2013-12-20 11:55:00,29.3,26.2,29.86,WNW,292,8.0,13.0,88,0.00,,,0.00,VWS V14.00,2013-12-20 17:55:00,
2013-12-20 12:00:00,29.2,26.1,29.87,WNW,292,6.0,13.0,88,0.00,,,0.00,VWS V14.00,2013-12-20 18:00:00,
2013-12-20 12:05:00,29.2,26.1,29.87,WNW,292,6.0,14.0,88,0.00,,,0.00,VWS V14.00,2013-12-20 18:05:00,
2013-12-20 12:10:00,29.2,26.1,29.86,WNW,292,3.0,5.0,88,0.00,,,0.00,VWS V14.00,2013-12-20 18:10:00,
2013-12-20 12:15:00,29.3,26.2,29.86,NW,315,4.0,8.0,88,0.00,,,0.00,VWS V14.00,2013-12-20 18:15:00,
2013-12-20 12:20:00,29.4,26.3,29.87,West,270,5.0,10.0,88,0.00,,,0.00,VWS V14.00,2013-12-20 18:20:00,
2013-12-20 12:25:00,29.5,26.4,29.86,WNW,292,6.0,9.0,88,0.00,,,0.00,VWS V14.00,2013-12-20 18:25:00,
2013-12-20 12:30:00,29.4,26.0,29.86,WNW,292,4.0,8.0,87,0.00,,,0.00,VWS V14.00,2013-12-20 18:30:00,
2013-12-20 12:35:00,29.4,26.0,29.87,WNW,292,4.0,7.0,87,0.00,,,0.00,VWS V14.00,2013-12-20 18:35:00,
2013-12-20 12:40:00,29.3,25.9,29.87,WNW,292,3.0,8.0,87,0.00,,,0.00,VWS V14.00,2013-12-20 18:40:00,
2013-12-20 12:45:00,29.3,25.9,29.87,West,270,3.0,7.0,87,0.00,,,0.00,VWS V14.00,2013-12-20 18:45:00,
2013-12-20 12:50:00,29.3,25.9,29.86,West,270,4.0,7.0,87,0.00,,,0.00,VWS V14.00,2013-12-20 18:50:00,
2013-12-20 12:55:00,29.3,25.9,29.86,West,270,4.0,8.0,87,0.00,,,0.00,VWS V14.00,2013-12-20 18:55:00,
2013-12-20 13:00:00,29.4,26.0,29.87,WNW,292,4.0,8.0,87,0.00,,,0.00,VWS V14.00,2013-12-20 19:00:00,
2013-12-20 13:05:00,29.4,26.0,29.86,WNW,292,5.0,11.0,87,0.00,,,0.00,VWS V14.00,2013-12-20 19:05:00,
2013-12-20 13:10:00,29.4,26.0,29.87,WNW,292,6.0,10.0,87,0.00,,,0.00,VWS V14.00,2013-12-20 19:10:00,
2013-12-20 13:15:00,29.3,25.6,29.87,WNW,292,7.0,10.0,86,0.00,,,0.00,VWS V14.00,2013-12-20 19:15:00,
2013-12-20 13:20:00,29.2,25.5,29.87,WNW,292,6.0,10.0,86,0.00,,,0.00,VWS V14.00,2013-12-20 19:20:00,
2013-12-20 13:25:00,29.2,25.5,29.87,WNW,292,5.0,9.0,86,0.00,,,0.00,VWS V14.00,2013-12-20 19:25:00,
2013-12-20 13:30:00,29.1,25.4,29.87,West,270,5.0,11.0,86,0.00,,,0.00,VWS V14.00,2013-12-20 19:30:00,
2013-12-20 13:35:00,28.9,25.2,29.87,WNW,292,7.0,12.0,86,0.00,,,0.00,VWS V14.00,2013-12-20 19:35:00,
2013-12-20 13:40:00,28.8,25.1,29.87,West,270,5.0,10.0,86,0.00,,,0.00,VWS V14.00,2013-12-20 19:40:00,
2013-12-20 13:45:00,28.7,25.0,29.87,WNW,292,4.0,8.0,86,0.00,,,0.00,VWS V14.00,2013-12-20 19:45:00,
2013-12-20 13:50:00,28.6,25.0,29.88,WNW,292,4.0,8.0,86,0.00,,,0.00,VWS V14.00,2013-12-20 19:50:00,
2013-12-20 13:55:00,28.5,24.9,29.87,West,270,4.0,7.0,86,0.00,,,0.00,VWS V14.00,2013-12-20 19:55:00,
2013-12-20 14:00:00,28.5,24.9,29.87,West,270,5.0,11.0,86,0.00,,,0.00,VWS V14.00,2013-12-20 20:00:00,
2013-12-20 14:05:00,28.5,24.9,29.87,West,270,6.0,10.0,86,0.00,,,0.00,VWS V14.00,2013-12-20 20:05:00,
2013-12-20 14:10:00,28.5,24.9,29.87,West,270,6.0,11.0,86,0.00,,,0.00,VWS V14.00,2013-12-20 20:10:00,
2013-12-20 14:15:00,28.5,24.9,29.87,West,270,5.0,9.0,86,0.00,,,0.00,VWS V14.00,2013-12-20 20:15:00,
2013-12-20 14:20:00,28.4,24.5,29.86,WNW,292,6.0,10.0,85,0.00,,,0.00,VWS V14.00,2013-12-20 20:20:00,
2013-12-20 14:25:00,28.4,24.8,29.87,West,270,6.0,9.0,86,0.00,,,0.00,VWS V14.00,2013-12-20 20:25:00,
2013-12-20 14:30:00,28.3,24.7,29.87,West,270,5.0,10.0,86,0.00,,,0.00,VWS V14.00,2013-12-20 20:30:00,
2013-12-20 14:35:00,28.1,24.2,29.88,West,270,8.0,15.0,85,0.00,,,0.00,VWS V14.00,2013-12-20 20:35:00,
2013-12-20 14:40:00,28.0,24.4,29.87,WNW,292,6.0,12.0,86,0.00,,,0.00,VWS V14.00,2013-12-20 20:40:00,
2013-12-20 14:45:00,27.9,24.0,29.87,West,270,5.0,11.0,85,0.00,,,0.00,VWS V14.00,2013-12-20 20:45:00,
2013-12-20 14:50:00,27.8,23.9,29.86,West,270,5.0,10.0,85,0.00,,,0.00,VWS V14.00,2013-12-20 20:50:00,
2013-12-20 14:55:00,27.7,23.8,29.87,West,270,4.0,9.0,85,0.00,,,0.00,VWS V14.00,2013-12-20 20:55:00,
2013-12-20 15:00:00,27.6,24.0,29.87,WNW,292,5.0,9.0,86,0.00,,,0.00,VWS V14.00,2013-12-20 21:00:00,
2013-12-20 15:05:00,27.6,24.0,29.86,West,270,4.0,8.0,86,0.00,,,0.00,VWS V14.00,2013-12-20 21:05:00,
2013-12-20 15:10:00,27.7,24.1,29.87,WNW,292,3.0,9.0,86,0.00,,,0.00,VWS V14.00,2013-12-20 21:10:00,
2013-12-20 15:15:00,27.7,24.1,29.87,West,270,5.0,9.0,86,0.00,,,0.00,VWS V14.00,2013-12-20 21:15:00,
2013-12-20 15:20:00,27.6,23.7,29.87,West,270,5.0,9.0,85,0.00,,,0.00,VWS V14.00,2013-12-20 21:20:00,
2013-12-20 15:25:00,27.6,24.0,29.87,WNW,292,5.0,9.0,86,0.00,,,0.00,VWS V14.00,2013-12-20 21:25:00,
2013-12-20 15:30:00,27.6,23.7,29.87,WNW,292,5.0,10.0,85,0.00,,,0.00,VWS V14.00,2013-12-20 21:30:00,
2013-12-20 15:35:00,27.5,23.6,29.88,NW,315,4.0,8.0,85,0.00,,,0.00,VWS V14.00,2013-12-20 21:35:00,
2013-12-20 15:40:00,27.4,23.5,29.88,WNW,292,4.0,9.0,85,0.00,,,0.00,VWS V14.00,2013-12-20 21:40:00,
2013-12-20 15:45:00,27.4,23.5,29.88,WNW,292,4.0,7.0,85,0.00,,,0.00,VWS V14.00,2013-12-20 21:45:00,
2013-12-20 15:50:00,27.4,23.5,29.89,WNW,292,5.0,8.0,85,0.00,,,0.00,VWS V14.00,2013-12-20 21:50:00,
2013-12-20 15:55:00,27.4,23.2,29.88,NW,315,5.0,9.0,84,0.00,,,0.00,VWS V14.00,2013-12-20 21:55:00,
2013-12-20 16:00:00,27.2,23.3,29.88,WNW,292,4.0,8.0,85,0.00,,,0.00,VWS V14.00,2013-12-20 22:00:00,
2013-12-20 16:05:00,27.2,23.3,29.89,WNW,292,5.0,9.0,85,0.00,,,0.00,VWS V14.00,2013-12-20 22:05:00,
2013-12-20 16:10:00,27.1,23.2,29.89,WNW,292,4.0,8.0,85,0.00,,,0.00,VWS V14.00,2013-12-20 22:10:00,
2013-12-20 16:15:00,27.1,23.2,29.89,West,270,4.0,9.0,85,0.00,,,0.00,VWS V14.00,2013-12-20 22:15:00,
2013-12-20 16:20:00,27.1,23.2,29.90,West,270,3.0,6.0,85,0.00,,,0.00,VWS V14.00,2013-12-20 22:20:00,
2013-12-20 16:25:00,27.0,23.1,29.90,West,270,4.0,8.0,85,0.00,,,0.00,VWS V14.00,2013-12-20 22:25:00,
2013-12-20 16:30:00,26.9,23.0,29.90,West,270,5.0,8.0,85,0.00,,,0.00,VWS V14.00,2013-12-20 22:30:00,
2013-12-20 16:35:00,26.9,23.0,29.90,WNW,292,4.0,6.0,85,0.00,,,0.00,VWS V14.00,2013-12-20 22:35:00,
2013-12-20 16:40:00,26.9,23.0,29.91,WNW,292,5.0,10.0,85,0.00,,,0.00,VWS V14.00,2013-12-20 22:40:00,
2013-12-20 16:45:00,26.7,22.8,29.90,West,270,4.0,9.0,85,0.00,,,0.00,VWS V14.00,2013-12-20 22:45:00,
2013-12-20 16:50:00,26.7,23.1,29.90,West,270,3.0,7.0,86,0.00,,,0.00,VWS V14.00,2013-12-20 22:50:00,
2013-12-20 16:55:00,26.6,23.0,29.90,West,270,3.0,5.0,86,0.00,,,0.00,VWS V14.00,2013-12-20 22:55:00,
2013-12-20 17:00:00,26.5,22.9,29.92,WNW,292,4.0,7.0,86,0.00,,,0.00,VWS V14.00,2013-12-20 23:00:00,
2013-12-20 17:05:00,26.5,22.9,29.92,WNW,292,5.0,8.0,86,0.00,,,0.00,VWS V14.00,2013-12-20 23:05:00,
2013-12-20 17:10:00,26.4,22.8,29.92,WNW,292,4.0,7.0,86,0.00,,,0.00,VWS V14.00,2013-12-20 23:10:00,
2013-12-20 17:15:00,26.3,22.7,29.93,West,270,4.0,7.0,86,0.00,,,0.00,VWS V14.00,2013-12-20 23:15:00,
2013-12-20 17:20:00,26.2,22.6,29.92,WNW,292,3.0,6.0,86,0.00,,,0.00,VWS V14.00,2013-12-20 23:20:00,
2013-12-20 17:25:00,26.2,22.6,29.91,WNW,292,2.0,5.0,86,0.00,,,0.00,VWS V14.00,2013-12-20 23:25:00,
2013-12-20 17:30:00,26.2,22.6,29.91,WNW,292,1.0,4.0,86,0.00,,,0.00,VWS V14.00,2013-12-20 23:30:00,
2013-12-20 17:35:00,26.2,22.6,29.91,WNW,292,4.0,7.0,86,0.00,,,0.00,VWS V14.00,2013-12-20 23:35:00,
2013-12-20 17:40:00,26.1,22.5,29.91,WNW,292,3.0,7.0,86,0.00,,,0.00,VWS V14.00,2013-12-20 23:40:00,
2013-12-20 17:45:00,26.1,22.5,29.91,WNW,292,5.0,9.0,86,0.00,,,0.00,VWS V14.00,2013-12-20 23:45:00,
2013-12-20 17:50:00,26.0,22.4,29.91,WNW,292,4.0,7.0,86,0.00,,,0.00,VWS V14.00,2013-12-20 23:50:00,
2013-12-20 17:55:00,26.0,22.4,29.91,WNW,292,5.0,10.0,86,0.00,,,0.00,VWS V14.00,2013-12-20 23:55:00,
2013-12-20 18:00:00,25.9,22.3,29.90,WNW,292,4.0,8.0,86,0.00,,,0.00,VWS V14.00,2013-12-21 00:00:00,
2013-12-20 18:05:00,25.8,22.2,29.90,WNW,292,3.0,7.0,86,0.00,,,0.00,VWS V14.00,2013-12-21 00:05:00,
2013-12-20 18:10:00,25.8,21.9,29.90,WNW,292,3.0,8.0,85,0.00,,,0.00,VWS V14.00,2013-12-21 00:10:00,
2013-12-20 18:15:00,25.7,22.1,29.90,NW,315,3.0,7.0,86,0.00,,,0.00,VWS V14.00,2013-12-21 00:15:00,
2013-12-20 18:20:00,25.7,22.1,29.90,WNW,292,3.0,5.0,86,0.00,,,0.00,VWS V14.00,2013-12-21 00:20:00,
2013-12-20 18:25:00,25.7,22.1,29.91,WNW,292,4.0,9.0,86,0.00,,,0.00,VWS V14.00,2013-12-21 00:25:00,
2013-12-20 18:30:00,25.6,21.7,29.91,WNW,292,5.0,8.0,85,0.00,,,0.00,VWS V14.00,2013-12-21 00:30:00,
2013-12-20 18:35:00,25.6,22.0,29.91,WNW,292,4.0,8.0,86,0.00,,,0.00,VWS V14.00,2013-12-21 00:35:00,
2013-12-20 18:40:00,25.5,21.6,29.91,WNW,292,4.0,8.0,85,0.00,,,0.00,VWS V14.00,2013-12-21 00:40:00,
2013-12-20 18:45:00,25.5,21.9,29.92,NW,315,4.0,7.0,86,0.00,,,0.00,VWS V14.00,2013-12-21 00:45:00,
2013-12-20 18:50:00,25.4,21.8,29.91,WNW,292,3.0,5.0,86,0.00,,,0.00,VWS V14.00,2013-12-21 00:50:00,
2013-12-20 18:55:00,25.4,21.8,29.92,West,270,2.0,5.0,86,0.00,,,0.00,VWS V14.00,2013-12-21 00:55:00,
2013-12-20 19:00:00,25.4,21.5,29.92,WNW,292,2.0,6.0,85,0.00,,,0.00,VWS V14.00,2013-12-21 01:00:00,
2013-12-20 19:05:00,25.4,21.5,29.91,West,270,3.0,5.0,85,0.00,,,0.00,VWS V14.00,2013-12-21 01:05:00,
2013-12-20 19:14:00,25.4,21.5,29.91,West,270,3.0,5.0,85,0.00,,,0.00,VWS V14.00,2013-12-21 01:14:00,
2013-12-20 19:15:00,25.3,21.4,29.90,NW,308,3.0,6.0,85,0.00,,,0.00,VWS V14.00,2013-12-21 01:15:00,
2013-12-20 19:20:00,25.4,21.5,29.90,WNW,301,3.0,6.0,85,0.00,,,0.00,VWS V14.00,2013-12-21 01:20:00,
2013-12-20 19:24:00,25.4,21.5,29.90,WNW,298,0.0,4.0,85,0.00,,,0.00,VWS V14.00,2013-12-21 01:24:00,
2013-12-20 19:25:00,25.4,21.5,29.90,WNW,298,0.0,4.0,85,0.00,,,0.00,VWS V14.00,2013-12-21 01:25:00,
2013-12-20 19:29:00,25.4,21.5,29.90,WNW,297,3.0,4.0,85,0.00,,,0.00,VWS V14.00,2013-12-21 01:29:00,
2013-12-20 19:30:00,25.4,21.5,29.90,WNW,297,3.0,4.0,85,0.00,,,0.00,VWS V14.00,2013-12-21 01:30:00,
2013-12-20 19:34:00,25.4,21.5,29.91,WNW,297,0.0,4.0,85,0.00,,,0.00,VWS V14.00,2013-12-21 01:34:00,
2013-12-20 19:35:00,25.4,21.5,29.91,WNW,297,0.0,4.0,85,0.00,,,0.00,VWS V14.00,2013-12-21 01:35:00,
2013-12-20 19:39:00,25.3,21.1,29.90,WNW,297,0.0,2.0,84,0.00,,,0.00,VWS V14.00,2013-12-21 01:39:00,
2013-12-20 19:40:00,25.3,21.1,29.90,WNW,297,0.0,2.0,84,0.00,,,0.00,VWS V14.00,2013-12-21 01:40:00,
2013-12-20 19:44:00,25.2,21.0,29.90,WNW,297,1.0,3.0,84,0.00,,,0.00,VWS V14.00,2013-12-21 01:44:00,
2013-12-20 19:45:00,25.3,21.1,29.90,WNW,297,3.0,3.0,84,0.00,,,0.00,VWS V14.00,2013-12-21 01:45:00,
2013-12-20 19:49:00,25.2,21.0,29.89,WNW,297,0.0,3.0,84,0.00,,,0.00,VWS V14.00,2013-12-21 01:49:00,
2013-12-20 19:50:00,25.2,21.0,29.89,WNW,297,0.0,3.0,84,0.00,,,0.00,VWS V14.00,2013-12-21 01:50:00,
2013-12-20 19:54:00,25.2,21.3,29.89,WNW,297,2.0,3.0,85,0.00,,,0.00,VWS V14.00,2013-12-21 01:54:00,
2013-12-20 19:55:00,25.2,21.3,29.89,WNW,297,1.0,3.0,85,0.00,,,0.00,VWS V14.00,2013-12-21 01:55:00,
2013-12-20 19:59:00,25.2,21.3,29.89,WNW,298,2.0,4.0,85,0.00,,,0.00,VWS V14.00,2013-12-21 01:59:00,
2013-12-20 20:00:00,25.2,21.3,29.89,WNW,298,1.0,4.0,85,0.00,,,0.00,VWS V14.00,2013-12-21 02:00:00,
2013-12-20 20:04:00,25.2,21.3,29.89,WNW,298,0.0,3.0,85,0.00,,,0.00,VWS V14.00,2013-12-21 02:04:00,
2013-12-20 20:05:00,25.2,21.3,29.89,WNW,298,0.0,3.0,85,0.00,,,0.00,VWS V14.00,2013-12-21 02:05:00,
2013-12-20 20:09:00,25.2,21.3,29.89,WNW,298,2.0,3.0,85,0.00,,,0.00,VWS V14.00,2013-12-21 02:09:00,
2013-12-20 20:10:00,25.2,21.3,29.89,WNW,298,2.0,3.0,85,0.00,,,0.00,VWS V14.00,2013-12-21 02:10:00,
2013-12-20 20:14:00,25.2,21.3,29.89,WNW,298,0.0,3.0,85,0.00,,,0.00,VWS V14.00,2013-12-21 02:14:00,
2013-12-20 20:15:00,25.2,21.3,29.89,WNW,298,0.0,3.0,85,0.00,,,0.00,VWS V14.00,2013-12-21 02:15:00,
2013-12-20 20:19:00,25.2,21.3,29.89,WNW,298,0.0,0.0,85,0.00,,,0.00,VWS V14.00,2013-12-21 02:19:00,
2013-12-20 20:20:00,25.1,21.2,29.89,WNW,298,0.0,0.0,85,0.00,,,0.00,VWS V14.00,2013-12-21 02:20:00,
2013-12-20 20:24:00,25.1,21.2,29.88,WNW,298,0.0,0.0,85,0.00,,,0.00,VWS V14.00,2013-12-21 02:24:00,
2013-12-20 20:25:00,25.1,21.2,29.88,WNW,298,0.0,0.0,85,0.00,,,0.00,VWS V14.00,2013-12-21 02:25:00,
2013-12-20 20:29:00,25.1,21.2,29.88,WNW,298,2.0,3.0,85,0.00,,,0.00,VWS V14.00,2013-12-21 02:29:00,
2013-12-20 20:30:00,25.1,21.0,29.88,WNW,298,1.0,3.0,84,0.00,,,0.00,VWS V14.00,2013-12-21 02:30:00,
2013-12-20 20:34:00,25.1,21.2,29.89,WNW,297,2.0,3.0,85,0.00,,,0.00,VWS V14.00,2013-12-21 02:34:00,
2013-12-20 20:35:00,25.1,21.2,29.89,WNW,297,2.0,3.0,85,0.00,,,0.00,VWS V14.00,2013-12-21 02:35:00,
2013-12-20 20:39:00,25.1,21.2,29.90,WNW,297,3.0,3.0,85,0.00,,,0.00,VWS V14.00,2013-12-21 02:39:00,
2013-12-20 20:40:00,25.1,21.2,29.90,WNW,299,3.0,4.0,85,0.00,,,0.00,VWS V14.00,2013-12-21 02:40:00,
2013-12-20 20:44:00,25.1,21.2,29.90,WNW,299,0.0,4.0,85,0.00,,,0.00,VWS V14.00,2013-12-21 02:44:00,
2013-12-20 20:45:00,25.1,21.2,29.90,WNW,299,0.0,4.0,85,0.00,,,0.00,VWS V14.00,2013-12-21 02:45:00,
2013-12-20 20:49:00,25.1,21.2,29.90,WNW,299,0.0,2.0,85,0.00,,,0.00,VWS V14.00,2013-12-21 02:49:00,
2013-12-20 20:50:00,25.1,21.2,29.90,WNW,299,0.0,2.0,85,0.00,,,0.00,VWS V14.00,2013-12-21 02:50:00,
2013-12-20 20:54:00,25.2,21.3,29.90,WNW,298,0.0,2.0,85,0.00,,,0.00,VWS V14.00,2013-12-21 02:54:00,
2013-12-20 20:55:00,25.2,21.3,29.90,WNW,298,0.0,2.0,85,0.00,,,0.00,VWS V14.00,2013-12-21 02:55:00,
2013-12-20 20:59:00,25.1,21.0,29.90,WNW,298,0.0,2.0,84,0.00,,,0.00,VWS V14.00,2013-12-21 02:59:00,
2013-12-20 21:00:00,25.1,21.0,29.90,WNW,298,2.0,2.0,84,0.00,,,0.00,VWS V14.00,2013-12-21 03:00:00,
2013-12-20 21:04:00,25.0,20.9,29.89,WNW,298,0.0,2.0,84,0.00,,,0.00,VWS V14.00,2013-12-21 03:04:00,
2013-12-20 21:05:00,25.0,20.9,29.89,WNW,298,0.0,2.0,84,0.00,,,0.00,VWS V14.00,2013-12-21 03:05:00,
2013-12-20 21:09:00,24.9,20.5,29.89,WNW,298,0.0,0.0,83,0.00,,,0.00,VWS V14.00,2013-12-21 03:09:00,
2013-12-20 21:10:00,24.9,20.5,29.89,WNW,298,0.0,0.0,83,0.00,,,0.00,VWS V14.00,2013-12-21 03:10:00,
2013-12-20 21:14:00,24.9,20.8,29.90,WNW,298,0.0,0.0,84,0.00,,,0.00,VWS V14.00,2013-12-21 03:14:00,
2013-12-20 21:15:00,24.9,20.8,29.90,WNW,298,0.0,0.0,84,0.00,,,0.00,VWS V14.00,2013-12-21 03:15:00,
2013-12-20 21:19:00,24.9,20.8,29.89,WNW,298,0.0,0.0,84,0.00,,,0.00,VWS V14.00,2013-12-21 03:19:00,
2013-12-20 21:20:00,24.9,20.8,29.89,WNW,298,0.0,0.0,84,0.00,,,0.00,VWS V14.00,2013-12-21 03:20:00,
2013-12-20 21:24:00,24.9,20.5,29.89,WNW,298,0.0,0.0,83,0.00,,,0.00,VWS V14.00,2013-12-21 03:24:00,
2013-12-20 21:25:00,24.9,20.5,29.89,WNW,298,0.0,0.0,83,0.00,,,0.00,VWS V14.00,2013-12-21 03:25:00,
2013-12-20 21:29:00,24.9,20.8,29.89,WNW,298,0.0,0.0,84,0.00,,,0.00,VWS V14.00,2013-12-21 03:29:00,
2013-12-20 21:30:00,24.9,20.8,29.89,WNW,298,0.0,0.0,84,0.00,,,0.00,VWS V14.00,2013-12-21 03:30:00,
2013-12-20 21:38:00,25.0,21.1,29.89,WNW,298,3.0,3.0,85,0.00,,,0.00,VWS V14.00,2013-12-21 03:38:00,
2013-12-20 21:43:00,25.0,21.1,29.90,WNW,297,0.0,3.0,85,0.00,,,0.00,VWS V14.00,2013-12-21 03:43:00,
2013-12-20 21:48:00,25.1,21.2,29.90,WNW,295,0.0,4.0,85,0.00,,,0.00,VWS V14.00,2013-12-21 03:48:00,
2013-12-20 21:53:00,25.2,21.3,29.90,WNW,293,0.0,3.0,85,0.00,,,0.00,VWS V14.00,2013-12-21 03:53:00,
2013-12-20 21:58:00,25.2,21.0,29.92,WNW,292,2.0,3.0,84,0.00,,,0.00,VWS V14.00,2013-12-21 03:58:00,
2013-12-20 22:03:00,25.3,21.4,29.91,WNW,282,0.0,4.0,85,0.00,,,0.00,VWS V14.00,2013-12-21 04:03:00,
2013-12-20 22:08:00,25.3,21.4,29.91,WNW,282,4.0,4.0,85,0.00,,,0.00,VWS V14.00,2013-12-21 04:08:00,
2013-12-20 22:13:00,25.3,21.4,29.90,West,278,2.0,4.0,85,0.00,,,0.00,VWS V14.00,2013-12-21 04:13:00,
2013-12-20 22:18:00,25.4,21.2,29.91,West,279,1.0,3.0,84,0.00,,,0.00,VWS V14.00,2013-12-21 04:18:00,
2013-12-20 22:23:00,25.4,21.5,29.91,West,278,0.0,3.0,85,0.00,,,0.00,VWS V14.00,2013-12-21 04:23:00,
2013-12-20 22:28:00,25.4,21.2,29.89,West,278,0.0,2.0,84,0.00,,,0.00,VWS V14.00,2013-12-21 04:28:00,
2013-12-20 22:30:00,25.4,21.2,29.89,West,270,1.0,2.0,84,0.00,,,0.00,VWS V14.00,2013-12-21 04:30:00,
2013-12-20 22:35:00,25.3,21.1,29.89,West,270,1.0,2.0,84,0.00,,,0.00,VWS V14.00,2013-12-21 04:35:00,
2013-12-20 22:40:00,25.3,21.1,29.89,West,270,0.0,0.0,84,0.00,,,0.00,VWS V14.00,2013-12-21 04:40:00,
2013-12-20 22:45:00,25.3,20.9,29.89,West,270,0.0,0.0,83,0.00,,,0.00,VWS V14.00,2013-12-21 04:45:00,
2013-12-20 22:50:00,25.3,21.1,29.90,West,270,0.0,0.0,84,0.00,,,0.00,VWS V14.00,2013-12-21 04:50:00,
2013-12-20 22:55:00,25.3,21.4,29.91,West,270,0.0,3.0,85,0.00,,,0.00,VWS V14.00,2013-12-21 04:55:00,
2013-12-20 23:00:00,25.3,21.7,29.91,West,270,2.0,4.0,86,0.00,,,0.00,VWS V14.00,2013-12-21 05:00:00,
2013-12-20 23:05:00,25.4,21.8,29.90,West,270,3.0,5.0,86,0.00,,,0.00,VWS V14.00,2013-12-21 05:05:00,
2013-12-20 23:10:00,25.4,21.8,29.90,WNW,292,2.0,5.0,86,0.00,,,0.00,VWS V14.00,2013-12-21 05:10:00,
2013-12-20 23:15:00,25.5,21.9,29.90,WNW,292,3.0,5.0,86,0.00,,,0.00,VWS V14.00,2013-12-21 05:15:00,
2013-12-20 23:20:00,25.5,21.9,29.91,West,270,3.0,4.0,86,0.00,,,0.00,VWS V14.00,2013-12-21 05:20:00,
2013-12-20 23:25:00,25.5,21.9,29.91,West,270,2.0,4.0,86,0.00,,,0.00,VWS V14.00,2013-12-21 05:25:00,
2013-12-20 23:30:00,25.5,22.2,29.90,West,270,1.0,4.0,87,0.00,,,0.00,VWS V14.00,2013-12-21 05:30:00,
2013-12-20 23:35:00,25.6,22.3,29.90,WNW,292,2.0,5.0,87,0.00,,,0.00,VWS V14.00,2013-12-21 05:35:00,
2013-12-20 23:40:00,25.6,22.3,29.89,WNW,292,1.0,4.0,87,0.00,,,0.00,VWS V14.00,2013-12-21 05:40:00,
2013-12-20 23:45:00,25.7,22.4,29.89,WNW,292,1.0,4.0,87,0.00,,,0.00,VWS V14.00,2013-12-21 05:45:00,
2013-12-20 23:50:00,25.8,22.7,29.89,WNW,292,3.0,6.0,88,0.00,,,0.00,VWS V14.00,2013-12-21 05:50:00,
2013-12-20 23:55:00,25.8,22.7,29.90,WNW,292,4.0,9.0,88,0.00,,,0.00,VWS V14.00,2013-12-21 05:55:00,